Time;durP1;ratioP1;P1;durP2;ratioP2;P2;SDS_P1;SDS_P2;PMS_P1;PMS_P2;Temp;Humidity;BMP_temperature;BMP_pressure;BME280_temperature;BME280_humidity;BME280_pressure;Samples;Min_cycle;Max_cycle;Signal;HPM_P1;HPM_P2
2023/07/14 00:00:15;;;;;;;3.90;2.25;;;;;;;19.05;100.00;100578.63;4929165;28;20046;-74
2023/07/14 00:02:45;;;;;;;3.85;2.05;;;;;;;19.03;100.00;100572.53;4941878;29;20073;-74
2023/07/14 00:05:18;;;;;;;4.50;2.10;;;;;;;19.01;100.00;100572.06;4926025;29;20050;-74
2023/07/14 00:07:45;;;;;;;4.90;2.05;;;;;;;18.97;100.00;100574.75;4919681;29;20035;-74
2023/07/14 00:10:14;;;;;;;4.35;1.98;;;;;;;18.93;100.00;100571.81;4929156;29;20031;-74
2023/07/14 00:12:39;;;;;;;3.33;2.00;;;;;;;18.92;100.00;100575.00;4960292;28;20039;-74
2023/07/14 00:15:05;;;;;;;3.13;2.15;;;;;;;18.92;100.00;100577.81;4942055;29;20035;-74
2023/07/14 00:17:31;;;;;;;3.17;2.10;;;;;;;18.90;100.00;100571.69;4941970;29;20091;-74
2023/07/14 00:19:56;;;;;;;3.65;2.30;;;;;;;18.88;100.00;100572.03;4938833;29;20443;-74
2023/07/14 00:22:22;;;;;;;2.67;1.70;;;;;;;18.86;100.00;100565.13;4941921;29;20031;-74
2023/07/14 00:24:47;;;;;;;4.20;1.90;;;;;;;18.82;100.00;100558.56;4944794;28;20083;-74
2023/07/14 00:27:20;;;;;;;3.47;1.85;;;;;;;18.81;100.00;100566.19;4951456;29;20034;-74
2023/07/14 00:29:46;;;;;;;2.65;1.80;;;;;;;18.77;100.00;100564.41;4929561;28;20118;-74
2023/07/14 00:32:22;;;;;;;3.75;1.88;;;;;;;18.77;100.00;100556.78;4937192;28;20491;-74
2023/07/14 00:34:47;;;;;;;3.00;1.83;;;;;;;18.74;100.00;100551.84;4941673;29;20054;-74
2023/07/14 00:37:13;;;;;;;3.63;1.73;;;;;;;18.74;100.00;100546.22;4960474;28;20038;-74
2023/07/14 00:39:39;;;;;;;3.20;2.22;;;;;;;18.71;100.00;100536.47;4931516;29;20086;-74
2023/07/14 00:42:07;;;;;;;5.00;2.20;;;;;;;18.71;100.00;100530.00;4940692;28;20034;-74
2023/07/14 00:44:34;;;;;;;3.90;2.20;;;;;;;18.68;100.00;100519.47;4947630;29;20163;-74
2023/07/14 00:46:59;;;;;;;3.22;1.73;;;;;;;18.66;100.00;100516.97;4945212;28;20031;-74
2023/07/14 00:49:32;;;;;;;4.28;1.90;;;;;;;18.67;100.00;100518.66;4921884;29;20030;-74
2023/07/14 00:52:00;;;;;;;7.55;2.13;;;;;;;18.64;100.00;100522.16;4926393;28;20038;-74
2023/07/14 00:54:27;;;;;;;3.38;2.10;;;;;;;18.62;100.00;100507.63;4915361;29;20054;-74
2023/07/14 00:56:52;;;;;;;4.28;1.88;;;;;;;18.64;100.00;100501.66;4906949;28;20037;-74
2023/07/14 00:59:18;;;;;;;3.63;1.98;;;;;;;18.60;100.00;100495.88;4941265;29;20039;-74
2023/07/14 01:02:14;;;;;;;3.40;1.92;;;;;;;18.59;100.00;100490.63;4942248;28;20031;-74
2023/07/14 01:04:42;;;;;;;4.53;1.90;;;;;;;18.61;100.00;100474.19;4941607;29;20051;-74
2023/07/14 01:07:07;;;;;;;2.90;2.00;;;;;;;18.56;100.00;100472.47;4926254;29;20038;-74
2023/07/14 01:09:33;;;;;;;3.15;2.10;;;;;;;18.54;100.00;100464.34;4925794;29;20028;-74
2023/07/14 01:11:59;;;;;;;4.05;1.95;;;;;;;18.51;100.00;100459.44;4932183;29;20059;-75
2023/07/14 01:14:28;;;;;;;4.25;2.10;;;;;;;18.52;100.00;100461.06;4934962;29;20039;-75
2023/07/14 01:16:54;;;;;;;4.90;2.00;;;;;;;18.51;100.00;100451.00;4917141;29;20127;-75
2023/07/14 01:19:52;;;;;;;4.45;2.10;;;;;;;18.50;100.00;100445.72;4941891;29;20035;-75
2023/07/14 01:22:47;;;;;;;5.35;2.22;;;;;;;18.46;100.00;100423.09;4943871;29;20067;-75
2023/07/14 01:25:38;;;;;;;3.97;2.20;;;;;;;18.44;100.00;100439.53;4940887;29;20047;-75
2023/07/14 01:28:05;;;;;;;3.00;1.98;;;;;;;18.42;100.00;100447.47;4942143;29;20127;-75
2023/07/14 01:30:32;;;;;;;3.78;2.00;;;;;;;18.39;100.00;100459.41;4934588;29;20067;-75
2023/07/14 01:32:58;;;;;;;4.25;1.98;;;;;;;18.35;100.00;100452.84;4938067;29;20063;-75
2023/07/14 01:35:35;;;;;;;2.97;2.00;;;;;;;18.35;100.00;100444.41;4937936;28;20422;-75
2023/07/14 01:38:01;;;;;;;4.78;1.88;;;;;;;18.29;100.00;100448.59;4960245;29;20035;-75
2023/07/14 01:40:27;;;;;;;3.97;2.00;;;;;;;18.29;100.00;100454.22;4942961;29;20072;-75
2023/07/14 01:42:56;;;;;;;4.93;2.13;;;;;;;18.27;100.00;100446.13;4919934;29;20373;-75
2023/07/14 01:45:22;;;;;;;2.63;1.70;;;;;;;18.25;100.00;100450.50;4910542;29;20020;-75
2023/07/14 01:47:54;;;;;;;4.78;2.38;;;;;;;18.22;100.00;100435.13;4924494;29;20110;-75
2023/07/14 01:50:47;;;;;;;3.95;2.20;;;;;;;18.18;100.00;100444.59;4944029;29;20036;-75
2023/07/14 01:53:19;;;;;;;4.53;2.20;;;;;;;18.19;100.00;100423.75;4918060;29;20103;-75
2023/07/14 01:55:45;;;;;;;6.68;2.22;;;;;;;18.15;100.00;100425.63;4927970;29;20027;-75
2023/07/14 01:58:19;;;;;;;6.70;2.60;;;;;;;18.14;100.00;100419.19;4947384;29;20082;-75
2023/07/14 02:00:46;;;;;;;3.55;2.50;;;;;;;18.08;100.00;100415.78;4928969;29;20043;-75
2023/07/14 02:03:12;;;;;;;5.28;2.38;;;;;;;18.10;100.00;100409.78;4938444;28;20034;-75
2023/07/14 02:05:38;;;;;;;4.15;2.42;;;;;;;18.06;100.00;100406.03;4928084;29;20027;-75
2023/07/14 02:08:05;;;;;;;6.25;2.45;;;;;;;18.03;100.00;100416.00;4939976;28;20027;-74
2023/07/14 02:10:30;;;;;;;4.55;2.38;;;;;;;18.04;100.00;100397.13;4954894;28;20042;-75
2023/07/14 02:12:56;;;;;;;4.82;2.38;;;;;;;18.00;100.00;100399.81;4945475;28;20035;-74
2023/07/14 02:15:29;;;;;;;5.00;2.70;;;;;;;18.00;100.00;100399.00;4960763;28;20063;-75
2023/07/14 02:17:55;;;;;;;5.72;2.47;;;;;;;17.99;100.00;100397.34;4927238;28;20023;-75
2023/07/14 02:20:26;;;;;;;4.20;2.13;;;;;;;17.97;100.00;100385.63;4953127;29;20499;-75
2023/07/14 02:22:53;;;;;;;2.80;1.88;;;;;;;17.98;100.00;100396.53;4924687;29;20035;-75
2023/07/14 02:25:18;;;;;;;4.22;2.53;;;;;;;17.94;100.00;100384.38;4943422;29;20499;-75
2023/07/14 02:27:44;;;;;;;7.40;2.47;;;;;;;17.93;100.00;100388.31;4960235;28;20168;-74
2023/07/14 02:30:14;;;;;;;5.15;2.10;;;;;;;17.91;100.00;100373.78;4934834;29;20031;-75
2023/07/14 02:32:41;;;;;;;5.22;2.53;;;;;;;17.88;100.00;100373.69;4911544;29;20035;-75
2023/07/14 02:35:12;;;;;;;4.38;2.13;;;;;;;17.88;100.00;100363.25;4929057;28;20074;-75
2023/07/14 02:38:03;;;;;;;4.45;2.40;;;;;;;17.87;100.00;100367.25;4944206;29;20118;-75
2023/07/14 02:40:39;;;;;;;5.22;2.30;;;;;;;17.85;100.00;100363.94;4958716;28;20031;-75
2023/07/14 02:43:10;;;;;;;5.88;3.08;;;;;;;17.85;100.00;100353.53;4942959;29;20035;-75
2023/07/14 02:45:54;;;;;;;3.63;2.22;;;;;;;17.82;100.00;100344.97;4960739;28;20365;-75
2023/07/14 02:48:24;;;;;;;6.22;2.65;;;;;;;17.82;100.00;100344.97;4911432;29;20038;-75
2023/07/14 02:50:49;;;;;;;6.60;2.50;;;;;;;17.76;100.00;100341.53;4927350;29;20042;-75
2023/07/14 02:53:16;;;;;;;4.43;2.40;;;;;;;17.77;100.00;100345.97;4943147;29;20031;-75
2023/07/14 02:55:42;;;;;;;4.97;2.83;;;;;;;17.75;100.00;100339.09;4959928;28;20416;-75
2023/07/14 02:58:07;;;;;;;3.15;2.20;;;;;;;17.73;100.00;100331.00;4942637;29;20035;-75
2023/07/14 03:00:34;;;;;;;3.58;2.35;;;;;;;17.75;100.00;100328.69;4942724;29;20563;-74
2023/07/14 03:03:00;;;;;;;4.43;2.50;;;;;;;17.69;100.00;100316.03;4927477;29;20031;-75
2023/07/14 03:05:26;;;;;;;5.35;2.30;;;;;;;17.65;100.00;100313.06;4959917;28;20075;-75
2023/07/14 03:07:51;;;;;;;3.97;2.30;;;;;;;17.65;100.00;100315.06;4949397;29;20031;-75
2023/07/14 03:10:17;;;;;;;3.47;2.05;;;;;;;17.65;100.00;100304.66;4926388;29;20038;-74
2023/07/14 03:12:42;;;;;;;5.55;2.40;;;;;;;17.62;100.00;100302.53;4926380;29;20027;-74
2023/07/14 03:15:08;;;;;;;6.63;2.60;;;;;;;17.59;100.00;100311.66;4942306;29;20042;-74
2023/07/14 03:17:33;;;;;;;4.43;2.25;;;;;;;17.59;100.00;100302.41;4911007;29;20506;-74
2023/07/14 03:19:59;;;;;;;5.00;2.42;;;;;;;17.56;100.00;100303.94;4926543;29;20027;-74
2023/07/14 03:22:26;;;;;;;3.67;2.40;;;;;;;17.57;100.00;100299.13;4954861;28;20031;-74
2023/07/14 03:24:52;;;;;;;4.53;2.50;;;;;;;17.52;100.00;100290.91;4978850;28;20031;-74
2023/07/14 03:27:17;;;;;;;3.60;2.50;;;;;;;17.51;100.00;100289.28;4961669;28;20034;-74
2023/07/14 03:29:43;;;;;;;4.80;2.60;;;;;;;17.52;100.00;100297.34;4926449;29;20035;-75
2023/07/14 03:32:11;;;;;;;5.88;2.45;;;;;;;17.54;100.00;100303.44;4942175;28;20487;-74
2023/07/14 03:34:37;;;;;;;4.10;2.28;;;;;;;17.49;100.00;100309.28;4942341;29;20098;-74
2023/07/14 03:37:02;;;;;;;5.05;2.55;;;;;;;17.50;100.00;100310.94;4945094;28;20071;-74
2023/07/14 03:39:28;;;;;;;4.97;2.42;;;;;;;17.50;100.00;100304.50;4961434;28;20027;-74
2023/07/14 03:41:54;;;;;;;5.15;2.47;;;;;;;17.49;100.00;100291.63;4961291;28;20517;-74
2023/07/14 03:44:20;;;;;;;4.13;2.30;;;;;;;17.47;100.00;100275.13;4938373;29;20496;-74
2023/07/14 03:46:45;;;;;;;4.13;2.30;;;;;;;17.43;100.00;100274.16;4902775;29;20143;-74
2023/07/14 03:49:11;;;;;;;3.13;2.20;;;;;;;17.45;100.00;100269.03;4907334;29;20558;-74
2023/07/14 03:51:37;;;;;;;4.68;2.60;;;;;;;17.42;100.00;100261.31;4934878;29;20043;-75
2023/07/14 03:54:02;;;;;;;3.35;2.35;;;;;;;17.41;100.00;100252.06;4972241;28;20031;-75
2023/07/14 03:56:28;;;;;;;4.43;2.55;;;;;;;17.41;100.00;100254.03;4941948;29;20063;-74
2023/07/14 03:58:53;;;;;;;5.97;2.53;;;;;;;17.41;100.00;100257.69;4926233;29;20042;-74
2023/07/14 04:01:19;;;;;;;5.55;2.60;;;;;;;17.40;100.00;100246.78;4942311;29;20035;-74
2023/07/14 04:03:47;;;;;;;5.40;2.60;;;;;;;17.38;100.00;100243.50;4958946;28;20047;-74
2023/07/14 04:06:13;;;;;;;5.93;2.97;;;;;;;17.37;100.00;100233.44;4959170;28;20067;-74
2023/07/14 04:08:40;;;;;;;4.85;2.40;;;;;;;17.38;100.00;100226.66;4926012;29;20055;-74
2023/07/14 04:11:06;;;;;;;5.90;2.47;;;;;;;17.35;100.00;100218.94;4928307;28;20042;-74
2023/07/14 04:13:32;;;;;;;4.82;2.53;;;;;;;17.35;100.00;100222.56;4959342;28;20032;-74
2023/07/14 04:15:58;;;;;;;5.50;2.50;;;;;;;17.33;100.00;100215.69;4941925;29;20057;-74
2023/07/14 04:18:23;;;;;;;4.85;2.28;;;;;;;17.35;100.00;100205.72;4941723;29;20039;-74
2023/07/14 04:20:49;;;;;;;4.78;2.30;;;;;;;17.30;100.00;100197.53;4935318;29;20066;-74
2023/07/14 04:23:17;;;;;;;4.40;2.35;;;;;;;17.30;100.00;100191.94;4907533;29;20444;-74
2023/07/14 04:25:43;;;;;;;5.88;2.60;;;;;;;17.30;100.00;100189.13;4926723;28;20122;-74
2023/07/14 04:28:08;;;;;;;7.28;2.53;;;;;;;17.30;100.00;100185.47;4971311;28;20063;-74
2023/07/14 04:30:33;;;;;;;4.72;2.53;;;;;;;17.29;100.00;100189.47;4941672;28;20035;-74
2023/07/14 04:32:59;;;;;;;5.80;2.67;;;;;;;17.27;100.00;100183.38;4942070;29;20036;-74
2023/07/14 04:35:25;;;;;;;4.88;2.30;;;;;;;17.27;100.00;100191.78;4949339;28;20034;-74
2023/07/14 04:37:50;;;;;;;7.20;2.67;;;;;;;17.27;100.00;100186.97;4948837;29;20090;-75
2023/07/14 04:40:16;;;;;;;6.25;2.85;;;;;;;17.25;100.00;100194.13;4929531;29;20521;-75
2023/07/14 04:42:41;;;;;;;4.72;2.40;;;;;;;17.25;100.00;100183.72;4944920;29;20066;-75
2023/07/14 04:45:07;;;;;;;4.50;2.28;;;;;;;17.24;100.00;100190.47;4923340;28;20023;-75
2023/07/14 04:47:33;;;;;;;6.65;2.85;;;;;;;17.24;100.00;100186.88;4920740;28;20038;-75
2023/07/14 04:49:58;;;;;;;6.03;2.50;;;;;;;17.19;100.00;100188.75;4953612;29;20031;-74
2023/07/14 04:52:24;;;;;;;4.43;2.28;;;;;;;17.19;100.00;100188.75;4929466;29;20380;-75
2023/07/14 04:54:49;;;;;;;6.65;2.50;;;;;;;17.18;100.00;100177.84;4973889;28;20071;-75
2023/07/14 04:57:14;;;;;;;5.72;2.70;;;;;;;17.20;100.00;100183.94;4961299;28;20039;-74
2023/07/14 04:59:41;;;;;;;5.13;2.50;;;;;;;17.21;100.00;100182.75;4936811;29;20035;-74
2023/07/14 05:02:07;;;;;;;4.93;2.53;;;;;;;17.22;100.00;100172.34;4945196;29;20039;-74
2023/07/14 05:04:37;;;;;;;7.50;2.80;;;;;;;17.16;100.00;100164.19;4962167;28;20054;-76
2023/07/14 05:07:03;;;;;;;5.32;2.42;;;;;;;17.22;100.00;100161.97;4950154;28;20483;-74
2023/07/14 05:09:28;;;;;;;4.18;2.42;;;;;;;17.20;100.00;100158.69;4947943;28;20171;-74
2023/07/14 05:11:54;;;;;;;4.22;2.10;;;;;;;17.17;100.00;100159.38;4974216;28;20027;-74
2023/07/14 05:14:19;;;;;;;4.07;2.08;;;;;;;17.19;100.00;100154.25;4928652;29;20114;-74
2023/07/14 05:16:45;;;;;;;3.38;2.20;;;;;;;17.16;100.00;100141.75;4944639;29;20031;-74
2023/07/14 05:19:10;;;;;;;6.30;2.42;;;;;;;17.18;100.00;100139.38;4944613;29;20031;-74
2023/07/14 05:21:36;;;;;;;7.10;2.72;;;;;;;17.14;100.00;100130.03;4944470;29;20035;-74
2023/07/14 05:24:01;;;;;;;4.47;2.22;;;;;;;17.20;100.00;100125.81;4938211;29;20064;-74
2023/07/14 05:26:27;;;;;;;4.28;2.17;;;;;;;17.17;100.00;100122.91;4909877;29;20055;-74
2023/07/14 05:28:52;;;;;;;5.35;2.13;;;;;;;17.14;100.00;100121.63;4928314;29;20133;-74
2023/07/14 05:31:18;;;;;;;4.03;2.67;;;;;;;17.18;100.00;100132.94;4957309;29;20023;-74
2023/07/14 05:33:43;;;;;;;5.53;2.58;;;;;;;17.18;100.00;100128.16;4928629;28;20031;-74
2023/07/14 05:36:10;;;;;;;6.43;2.70;;;;;;;17.13;100.00;100128.41;4973094;28;20085;-74
2023/07/14 05:38:36;;;;;;;4.05;2.00;;;;;;;17.13;100.00;100122.78;4950373;28;20035;-74
2023/07/14 05:41:04;;;;;;;4.63;2.05;;;;;;;17.11;100.00;100105.47;4928352;29;20070;-74
2023/07/14 05:43:29;;;;;;;7.53;2.80;;;;;;;17.10;100.00;100114.22;4928794;28;20035;-74
2023/07/14 05:45:55;;;;;;;3.78;2.10;;;;;;;17.14;100.00;100103.97;4944428;29;20546;-74
2023/07/14 05:48:20;;;;;;;4.32;2.17;;;;;;;17.14;100.00;100095.53;4920853;29;20023;-74
2023/07/14 05:50:46;;;;;;;5.28;2.20;;;;;;;17.19;100.00;100098.13;4944075;29;20035;-74
2023/07/14 05:53:12;;;;;;;4.93;2.30;;;;;;;17.16;100.00;100091.22;4944192;29;20450;-74
2023/07/14 05:55:37;;;;;;;5.95;2.13;;;;;;;17.19;100.00;100090.53;4943840;29;20042;-74
2023/07/14 05:58:03;;;;;;;4.90;2.08;;;;;;;17.21;100.00;100078.94;4943839;29;20035;-75
2023/07/14 06:00:29;;;;;;;4.97;2.67;;;;;;;17.22;100.00;100076.94;4928081;29;20035;-74
2023/07/14 06:02:54;;;;;;;5.20;2.10;;;;;;;17.26;100.00;100070.28;4961015;28;20027;-74
2023/07/14 06:05:20;;;;;;;5.53;2.42;;;;;;;17.27;100.00;100076.72;4943634;29;20110;-74
2023/07/14 06:07:46;;;;;;;5.22;2.50;;;;;;;17.33;100.00;100064.13;4961156;28;20035;-74
2023/07/14 06:10:11;;;;;;;4.72;2.50;;;;;;;17.33;100.00;100055.69;4960802;28;20042;-74
2023/07/14 06:12:37;;;;;;;7.00;2.40;;;;;;;17.38;100.00;100038.59;4929940;29;20095;-75
2023/07/14 06:15:03;;;;;;;3.50;2.25;;;;;;;17.39;100.00;100045.88;4960686;28;20368;-74
2023/07/14 06:17:28;;;;;;;6.28;2.28;;;;;;;17.43;100.00;100036.38;4912219;29;20054;-74
2023/07/14 06:19:54;;;;;;;6.63;2.70;;;;;;;17.44;100.00;100034.41;4927611;29;20106;-74
2023/07/14 06:22:21;;;;;;;7.40;2.42;;;;;;;17.52;100.00;100035.44;4912008;29;20046;-74
2023/07/14 06:24:48;;;;;;;5.88;2.53;;;;;;;17.56;100.00;100034.38;4960487;28;20441;-74
2023/07/14 06:27:14;;;;;;;4.82;2.38;;;;;;;17.62;100.00;100023.72;4943745;29;20467;-74
2023/07/14 06:29:39;;;;;;;9.90;2.85;;;;;;;17.68;100.00;100027.94;4943301;29;20061;-74
2023/07/14 06:32:05;;;;;;;6.82;2.72;;;;;;;17.74;100.00;100012.47;4935882;29;20038;-75
2023/07/14 06:34:31;;;;;;;4.20;2.35;;;;;;;17.84;100.00;100005.59;4940069;29;20070;-75
2023/07/14 06:36:57;;;;;;;4.55;2.33;;;;;;;17.87;100.00;99993.63;4927173;29;20479;-74
2023/07/14 06:39:22;;;;;;;5.43;2.40;;;;;;;17.94;100.00;99993.84;4955960;29;20484;-75
2023/07/14 06:41:48;;;;;;;5.20;2.42;;;;;;;18.00;100.00;99991.63;4960409;28;20039;-74
2023/07/14 06:44:14;;;;;;;3.22;2.00;;;;;;;18.04;100.00;99979.28;4959977;28;20049;-74
2023/07/14 06:46:45;;;;;;;6.55;2.60;;;;;;;18.14;100.00;99985.59;4923660;28;20039;-74
2023/07/14 06:49:12;;;;;;;5.72;2.47;;;;;;;18.22;100.00;99973.34;4961301;28;20038;-74
2023/07/14 06:51:37;;;;;;;3.65;2.30;;;;;;;18.29;100.00;99962.31;4943000;29;20114;-74
2023/07/14 06:54:03;;;;;;;7.32;2.47;;;;;;;18.35;100.00;99965.69;4926992;29;20031;-74
2023/07/14 06:56:28;;;;;;;5.35;1.98;;;;;;;18.40;100.00;99966.22;4911592;29;20102;-74
2023/07/14 06:58:54;;;;;;;4.88;2.25;;;;;;;18.45;100.00;99959.53;4924933;29;20027;-74
2023/07/14 07:01:20;;;;;;;7.63;2.40;;;;;;;18.50;100.00;99964.91;4942865;29;20039;-74
2023/07/14 07:03:45;;;;;;;4.38;2.25;;;;;;;18.52;100.00;99962.53;4927905;29;20055;-74
2023/07/14 07:06:15;;;;;;;4.57;2.60;;;;;;;18.56;100.00;99960.63;4962435;28;20023;-74
2023/07/14 07:08:40;;;;;;;3.30;1.85;;;;;;;18.60;100.00;99955.91;4914255;28;20061;-74
2023/07/14 07:11:05;;;;;;;3.65;1.85;;;;;;;18.65;100.00;99949.22;4923506;28;20039;-74
2023/07/14 07:13:31;;;;;;;4.53;2.38;;;;;;;18.68;100.00;99945.66;4955050;29;20035;-74
2023/07/14 07:15:57;;;;;;;5.43;2.05;;;;;;;18.72;100.00;99952.19;4942731;29;20035;-74
2023/07/14 07:18:24;;;;;;;3.72;2.10;;;;;;;18.76;100.00;99947.53;4942303;29;20031;-74
2023/07/14 07:20:51;;;;;;;5.95;2.00;;;;;;;18.81;100.00;99933.19;4926445;29;20400;-74
2023/07/14 07:23:17;;;;;;;3.95;2.15;;;;;;;18.86;100.00;99929.25;4942593;29;20046;-74
2023/07/14 07:25:49;;;;;;;4.20;2.17;;;;;;;18.90;100.00;99919.75;4910900;28;20024;-74
2023/07/14 07:28:15;;;;;;;4.78;1.80;;;;;;;18.95;100.00;99925.09;4942094;29;20031;-74
2023/07/14 07:30:40;;;;;;;6.75;2.33;;;;;;;19.02;100.00;99932.06;4906168;28;20027;-74
2023/07/14 07:33:06;;;;;;;6.93;2.22;;;;;;;19.09;100.00;99929.44;4954461;29;20042;-74
2023/07/14 07:35:31;;;;;;;5.47;2.05;;;;;;;19.15;100.00;99948.47;4966452;28;20026;-74
2023/07/14 07:37:59;;;;;;;7.60;2.35;;;;;;;19.27;100.00;99941.91;4940367;29;20027;-74
2023/07/14 07:40:24;;;;;;;5.45;2.20;;;;;;;19.40;100.00;99943.44;4922916;28;20555;-74
2023/07/14 07:42:50;;;;;;;6.05;2.25;;;;;;;19.52;100.00;99936.03;4953237;29;20035;-74
2023/07/14 07:45:16;;;;;;;7.18;2.20;;;;;;;19.70;100.00;99934.47;4960009;28;20027;-75
2023/07/14 07:47:42;;;;;;;7.50;1.88;;;;;;;19.86;100.00;99932.41;4948893;28;20126;-75
2023/07/14 07:50:07;;;;;;;5.60;2.20;;;;;;;20.02;100.00;99937.13;4966025;28;20035;-75
2023/07/14 07:52:33;;;;;;;4.63;2.20;;;;;;;20.20;100.00;99938.31;4942108;29;20031;-75
2023/07/14 07:54:58;;;;;;;3.10;1.75;;;;;;;20.36;100.00;99938.19;4941965;29;20035;-75
2023/07/14 07:57:25;;;;;;;6.60;2.10;;;;;;;20.54;100.00;99935.75;4967253;28;20062;-75
2023/07/14 07:59:50;;;;;;;4.50;2.38;;;;;;;20.71;100.00;99931.59;4941988;28;20039;-75
2023/07/14 08:02:15;;;;;;;5.43;2.00;;;;;;;20.90;100.00;99928.69;4941952;29;20042;-75
2023/07/14 08:04:41;;;;;;;4.25;1.98;;;;;;;21.05;100.00;99923.28;4938652;29;20107;-75
2023/07/14 08:07:13;;;;;;;3.90;1.90;;;;;;;21.27;100.00;99930.06;4939062;29;20035;-75
2023/07/14 08:09:38;;;;;;;6.40;2.25;;;;;;;21.48;100.00;99921.94;4940568;29;20506;-75
2023/07/14 08:12:05;;;;;;;6.95;2.00;;;;;;;21.68;100.00;99913.31;4929447;29;20032;-75
2023/07/14 08:14:31;;;;;;;4.05;1.77;;;;;;;21.85;100.00;99898.59;4926532;29;20110;-75
2023/07/14 08:16:57;;;;;;;6.72;2.15;;;;;;;22.04;100.00;99900.44;4943804;29;20086;-75
2023/07/14 08:19:22;;;;;;;3.47;2.00;;;;;;;22.20;100.00;99892.53;4942500;29;20039;-76
2023/07/14 08:21:48;;;;;;;5.30;1.95;;;;;;;22.41;100.00;99886.31;4942563;29;20028;-76
2023/07/14 08:24:13;;;;;;;4.88;1.67;;;;;;;22.58;100.00;99875.53;4942458;29;20137;-76
2023/07/14 08:26:39;;;;;;;5.45;1.70;;;;;;;22.76;100.00;99873.66;4942528;29;20028;-76
2023/07/14 08:29:04;;;;;;;4.20;1.55;;;;;;;22.95;100.00;99866.94;4955059;29;20091;-76
2023/07/14 08:31:30;;;;;;;4.13;1.50;;;;;;;23.14;100.00;99871.53;4910933;29;20421;-76
2023/07/14 08:33:56;;;;;;;3.47;1.75;;;;;;;23.36;100.00;99861.94;4926577;29;20099;-76
2023/07/14 08:36:21;;;;;;;6.28;1.70;;;;;;;23.54;100.00;99869.72;4936762;29;20100;-76
2023/07/14 08:38:47;;;;;;;9.63;2.10;;;;;;;23.74;100.00;99854.06;4939081;29;20484;-76
2023/07/14 08:41:33;;;;;;;2.47;1.30;;;;;;;23.92;100.00;99856.13;4937241;29;20031;-76
2023/07/14 08:44:18;;;;;;;5.13;1.38;;;;;;;24.09;98.64;99859.00;4926233;29;20035;-76
2023/07/14 08:46:56;;;;;;;5.30;1.35;;;;;;;24.29;97.06;99838.78;4943791;29;20114;-76
2023/07/14 08:49:45;;;;;;;5.30;1.70;;;;;;;24.53;95.85;99837.22;4948658;29;20039;-76
2023/07/14 08:52:26;;;;;;;4.88;1.70;;;;;;;24.78;91.81;99836.41;4946260;28;20047;-76
2023/07/14 08:55:09;;;;;;;3.20;1.25;;;;;;;24.97;91.41;99838.81;4941993;29;20385;-76
2023/07/14 08:58:09;;;;;;;4.05;1.20;;;;;;;25.20;90.46;99824.16;4945987;29;20470;-76
2023/07/14 09:00:44;;;;;;;3.95;1.20;;;;;;;25.48;86.35;99811.88;4943223;28;20512;-76
2023/07/14 09:03:15;;;;;;;3.97;1.58;;;;;;;25.67;83.64;99802.06;4926584;28;20035;-76
2023/07/14 09:06:16;;;;;;;6.32;1.20;;;;;;;25.84;82.70;99806.84;4933490;29;20035;-76
2023/07/14 09:08:41;;;;;;;2.75;1.20;;;;;;;26.01;82.66;99810.81;4974799;28;20139;-76
2023/07/14 09:11:27;;;;;;;4.80;1.50;;;;;;;26.17;79.71;99809.50;4947016;28;20031;-76
2023/07/14 09:13:55;;;;;;;5.22;1.20;;;;;;;26.32;77.48;99813.84;4933688;29;20472;-77
2023/07/14 09:16:23;;;;;;;3.47;0.90;;;;;;;26.44;78.33;99819.06;4944702;28;20031;-76
2023/07/14 09:19:12;;;;;;;1.80;0.95;;;;;;;26.54;78.18;99817.34;4934794;29;20472;-76
2023/07/14 09:21:42;;;;;;;2.53;1.10;;;;;;;26.64;76.22;99807.13;4962543;28;20089;-77
2023/07/14 09:24:12;;;;;;;5.32;1.40;;;;;;;26.72;73.86;99805.81;4935276;29;20087;-76
2023/07/14 09:26:51;;;;;;;3.03;1.23;;;;;;;26.83;73.09;99786.59;4961548;28;20078;-76
2023/07/14 09:29:23;;;;;;;2.38;1.10;;;;;;;26.90;72.80;99780.00;4944193;28;20122;-76
2023/07/14 09:31:49;;;;;;;;;;;;;;;27.01;73.52;99779.88;4935593;29;20114;-75
2023/07/14 09:34:27;;;;;;;3.78;0.88;;;;;;;27.16;73.29;99772.81;4961415;28;19957;-75
2023/07/14 09:36:53;;;;;;;5.18;1.17;;;;;;;27.27;73.02;99776.34;4951366;28;20042;-75
2023/07/14 09:39:37;;;;;;;3.22;1.23;;;;;;;27.38;70.66;99762.75;4928465;29;20039;-75
2023/07/14 09:42:04;;;;;;;2.70;1.38;;;;;;;27.48;71.89;99758.16;4913695;28;20102;-75
2023/07/14 09:44:30;;;;;;;4.25;1.02;;;;;;;27.53;72.29;99751.97;4943791;29;20031;-75
2023/07/14 09:46:55;;;;;;;6.05;1.10;;;;;;;27.58;71.08;99742.97;4944938;28;20114;-75
2023/07/14 09:49:24;;;;;;;3.63;1.00;;;;;;;27.69;72.80;99739.91;4956750;29;20089;-75
2023/07/14 09:52:00;;;;;;;2.30;1.23;;;;;;;27.79;73.25;99741.84;4961227;28;20032;-75
2023/07/14 09:54:26;;;;;;;5.18;1.55;;;;;;;27.93;70.97;99742.88;4961170;28;20066;-76
2023/07/14 09:56:51;;;;;;;4.18;1.38;;;;;;;28.11;70.68;99736.88;4961179;28;20432;-76
2023/07/14 09:59:20;;;;;;;3.47;1.08;;;;;;;28.25;70.82;99731.75;4927681;29;20054;-74
2023/07/14 10:01:56;;;;;;;4.00;1.08;;;;;;;28.46;69.62;99732.63;4946111;28;20113;-74
2023/07/14 10:04:27;;;;;;;4.75;1.10;;;;;;;28.68;67.40;99725.28;4927027;28;20042;-75
2023/07/14 10:06:52;;;;;;;3.60;1.00;;;;;;;28.88;66.04;99718.78;4927687;29;20027;-76
2023/07/14 10:09:20;;;;;;;3.50;1.05;;;;;;;29.05;66.36;99719.72;4936664;29;20046;-76
2023/07/14 10:11:51;;;;;;;4.07;1.00;;;;;;;29.21;64.41;99710.41;4973138;28;20121;-76
2023/07/14 10:14:19;;;;;;;6.50;1.20;;;;;;;29.36;62.29;99723.94;4960989;28;20035;-76
2023/07/14 10:16:45;;;;;;;3.75;1.25;;;;;;;29.50;61.70;99714.22;4955035;28;20035;-76
2023/07/14 10:19:11;;;;;;;6.70;1.60;;;;;;;29.65;59.18;99713.94;4934028;28;20031;-76
2023/07/14 10:21:37;;;;;;;3.47;1.10;;;;;;;29.77;61.75;99708.31;4962869;28;20035;-76
2023/07/14 10:24:18;;;;;;;3.33;1.00;;;;;;;30.01;58.41;99713.91;4962930;28;20030;-76
2023/07/14 10:26:50;;;;;;;5.47;1.40;;;;;;;30.18;55.58;99697.53;4944590;28;20035;-76
2023/07/14 10:29:17;;;;;;;3.35;1.08;;;;;;;30.30;55.68;99696.81;4930552;28;20089;-76
2023/07/14 10:31:46;;;;;;;3.30;1.00;;;;;;;30.36;54.64;99686.44;4979512;28;20110;-76
2023/07/14 10:34:14;;;;;;;5.60;1.33;;;;;;;30.57;53.85;99684.25;4961541;28;20035;-76
2023/07/14 10:36:40;;;;;;;4.93;1.40;;;;;;;30.69;53.21;99686.34;4974696;28;20034;-76
2023/07/14 10:39:35;;;;;;;5.15;1.10;;;;;;;30.81;54.22;99684.81;4945600;28;20051;-76
2023/07/14 10:42:01;;;;;;;4.97;1.40;;;;;;;30.83;52.06;99657.31;4929213;28;20027;-76
2023/07/14 10:44:27;;;;;;;5.78;1.30;;;;;;;30.94;53.34;99654.94;4930542;29;20091;-76
2023/07/14 10:46:56;;;;;;;4.30;1.10;;;;;;;31.08;53.69;99650.06;4946003;29;20391;-76
2023/07/14 10:49:43;;;;;;;5.45;1.05;;;;;;;31.19;52.02;99661.19;4949890;28;20030;-76
2023/07/14 10:52:11;;;;;;;4.43;1.17;;;;;;;31.32;50.70;99659.97;4945777;28;20039;-76
2023/07/14 10:54:59;;;;;;;5.68;1.00;;;;;;;31.48;50.50;99643.91;4968483;28;20118;-77
2023/07/14 10:57:35;;;;;;;2.17;1.17;;;;;;;31.57;49.93;99635.44;4972796;28;20038;-76
2023/07/14 11:00:46;;;;;;;5.35;1.00;;;;;;;31.69;50.12;99637.50;4942729;28;20047;-77
2023/07/14 11:03:23;;;;;;;8.68;1.23;;;;;;;31.88;47.72;99631.97;4956755;28;20043;-76
2023/07/14 11:05:53;;;;;;;3.38;1.15;;;;;;;32.04;46.99;99623.25;4932590;28;20086;-76
2023/07/14 11:08:18;;;;;;;2.95;0.75;;;;;;;32.12;45.42;99632.41;4955604;29;20035;-76
2023/07/14 11:10:43;;;;;;;3.78;1.02;;;;;;;32.23;43.86;99648.00;4926926;29;20499;-76
2023/07/14 11:13:34;;;;;;;3.95;1.15;;;;;;;32.37;43.58;99648.75;4974006;28;20169;-77
2023/07/14 11:16:08;;;;;;;5.33;1.20;;;;;;;32.46;44.62;99640.25;4972917;28;20170;-77
2023/07/14 11:18:45;;;;;;;3.50;1.10;;;;;;;32.45;43.61;99630.00;4942332;29;20035;-77
2023/07/14 11:21:22;;;;;;;3.88;1.17;;;;;;;32.54;43.51;99630.13;4967590;28;20104;-76
2023/07/14 11:23:51;;;;;;;5.07;1.10;;;;;;;32.59;43.53;99611.44;4967796;28;20042;-76
2023/07/14 11:26:38;;;;;;;6.25;1.08;;;;;;;32.67;44.03;99609.91;4942202;29;20035;-77
2023/07/14 11:29:10;;;;;;;2.63;1.00;;;;;;;32.82;44.13;99592.91;4962830;28;20050;-77